sensor_id;sensor_type;location;lat;lon;timestamp;P1;P2;P0
59153;PMS5003;44935;48.944;9.418;2022-12-18T00:01:21;31;27;
59153;PMS5003;44935;48.944;9.418;2022-12-18T00:03:51;31;28;
59153;PMS5003;44935;48.944;9.418;2022-12-18T00:06:21;34;34;
59153;PMS5003;44935;48.944;9.418;2022-12-18T00:08:50;29;29;
59153;PMS5003;44935;48.944;9.418;2022-12-18T00:11:18;30;30;
59153;PMS5003;44935;48.944;9.418;2022-12-18T00:13:47;26;26;
59153;PMS5003;44935;48.944;9.418;2022-12-18T00:16:16;22;22;
59153;PMS5003;44935;48.944;9.418;2022-12-18T00:18:47;10;10;
59153;PMS5003;44935;48.944;9.418;2022-12-18T00:21:15;28;26;
59153;PMS5003;44935;48.944;9.418;2022-12-18T00:23:45;24;23;
59153;PMS5003;44935;48.944;9.418;2022-12-18T00:26:16;27;24;
59153;PMS5003;44935;48.944;9.418;2022-12-18T00:28:47;35;33;
59153;PMS5003;44935;48.944;9.418;2022-12-18T00:31:18;21;21;
59153;PMS5003;44935;48.944;9.418;2022-12-18T00:33:47;24;22;
59153;PMS5003;44935;48.944;9.418;2022-12-18T00:36:17;31;25;
59153;PMS5003;44935;48.944;9.418;2022-12-18T00:38:47;38;30;
59153;PMS5003;44935;48.944;9.418;2022-12-18T00:41:15;28;25;
59153;PMS5003;44935;48.944;9.418;2022-12-18T00:43:44;26;26;
59153;PMS5003;44935;48.944;9.418;2022-12-18T00:46:13;21;18;
59153;PMS5003;44935;48.944;9.418;2022-12-18T00:48:41;30;28;
59153;PMS5003;44935;48.944;9.418;2022-12-18T00:51:10;21;21;
59153;PMS5003;44935;48.944;9.418;2022-12-18T00:53:38;27;27;
59153;PMS5003;44935;48.944;9.418;2022-12-18T00:56:07;27;22;
59153;PMS5003;44935;48.944;9.418;2022-12-18T00:58:36;38;37;
59153;PMS5003;44935;48.944;9.418;2022-12-18T01:01:08;27;25;
59153;PMS5003;44935;48.944;9.418;2022-12-18T01:03:37;46;41;
59153;PMS5003;44935;48.944;9.418;2022-12-18T01:06:09;35;33;
59153;PMS5003;44935;48.944;9.418;2022-12-18T01:08:39;23;22;
59153;PMS5003;44935;48.944;9.418;2022-12-18T01:11:07;25;25;
59153;PMS5003;44935;48.944;9.418;2022-12-18T01:13:37;35;33;
59153;PMS5003;44935;48.944;9.418;2022-12-18T01:16:04;28;28;
59153;PMS5003;44935;48.944;9.418;2022-12-18T01:18:32;24;22;
59153;PMS5003;44935;48.944;9.418;2022-12-18T01:21:00;22;21;
59153;PMS5003;44935;48.944;9.418;2022-12-18T01:23:34;38;34;
59153;PMS5003;44935;48.944;9.418;2022-12-18T01:26:06;23;22;
59153;PMS5003;44935;48.944;9.418;2022-12-18T01:28:36;27;23;
59153;PMS5003;44935;48.944;9.418;2022-12-18T01:31:21;31;29;
59153;PMS5003;44935;48.944;9.418;2022-12-18T01:33:51;26;26;
59153;PMS5003;44935;48.944;9.418;2022-12-18T01:36:24;43;39;
59153;PMS5003;44935;48.944;9.418;2022-12-18T01:38:56;27;23;
59153;PMS5003;44935;48.944;9.418;2022-12-18T01:41:29;26;26;
59153;PMS5003;44935;48.944;9.418;2022-12-18T01:44:00;31;26;
59153;PMS5003;44935;48.944;9.418;2022-12-18T01:46:30;28;25;
59153;PMS5003;44935;48.944;9.418;2022-12-18T01:49:00;31;28;
59153;PMS5003;44935;48.944;9.418;2022-12-18T01:51:30;31;24;
59153;PMS5003;44935;48.944;9.418;2022-12-18T01:53:59;21;19;
59153;PMS5003;44935;48.944;9.418;2022-12-18T01:56:27;27;27;
59153;PMS5003;44935;48.944;9.418;2022-12-18T01:58:57;26;22;
59153;PMS5003;44935;48.944;9.418;2022-12-18T02:01:28;28;25;
59153;PMS5003;44935;48.944;9.418;2022-12-18T02:04:13;25;24;
59153;PMS5003;44935;48.944;9.418;2022-12-18T02:06:50;37;34;
59153;PMS5003;44935;48.944;9.418;2022-12-18T02:09:22;45;41;
59153;PMS5003;44935;48.944;9.418;2022-12-18T02:11:56;46;46;
59153;PMS5003;44935;48.944;9.418;2022-12-18T02:14:33;37;30;
59153;PMS5003;44935;48.944;9.418;2022-12-18T02:17:07;27;25;
59153;PMS5003;44935;48.944;9.418;2022-12-18T02:19:47;21;21;
59153;PMS5003;44935;48.944;9.418;2022-12-18T02:22:29;25;23;
59153;PMS5003;44935;48.944;9.418;2022-12-18T02:25:11;27;21;
59153;PMS5003;44935;48.944;9.418;2022-12-18T02:27:50;29;25;
59153;PMS5003;44935;48.944;9.418;2022-12-18T02:30:19;72;68;
59153;PMS5003;44935;48.944;9.418;2022-12-18T02:32:48;73;70;
59153;PMS5003;44935;48.944;9.418;2022-12-18T02:35:22;22;21;
59153;PMS5003;44935;48.944;9.418;2022-12-18T02:37:58;17;14;
59153;PMS5003;44935;48.944;9.418;2022-12-18T02:40:34;21;21;
59153;PMS5003;44935;48.944;9.418;2022-12-18T02:43:07;10;10;
59153;PMS5003;44935;48.944;9.418;2022-12-18T02:45:45;17;11;
59153;PMS5003;44935;48.944;9.418;2022-12-18T02:48:13;15;14;
59153;PMS5003;44935;48.944;9.418;2022-12-18T02:50:43;28;24;
59153;PMS5003;44935;48.944;9.418;2022-12-18T02:53:19;20;20;
59153;PMS5003;44935;48.944;9.418;2022-12-18T02:55:54;29;26;
59153;PMS5003;44935;48.944;9.418;2022-12-18T02:58:34;21;21;
59153;PMS5003;44935;48.944;9.418;2022-12-18T03:01:08;20;20;
59153;PMS5003;44935;48.944;9.418;2022-12-18T03:03:42;18;12;
59153;PMS5003;44935;48.944;9.418;2022-12-18T03:06:15;12;12;
59153;PMS5003;44935;48.944;9.418;2022-12-18T03:08:51;14;13;
59153;PMS5003;44935;48.944;9.418;2022-12-18T03:11:22;22;20;
59153;PMS5003;44935;48.944;9.418;2022-12-18T03:13:53;24;21;
59153;PMS5003;44935;48.944;9.418;2022-12-18T03:16:24;18;18;
59153;PMS5003;44935;48.944;9.418;2022-12-18T03:18:56;18;14;
59153;PMS5003;44935;48.944;9.418;2022-12-18T03:21:27;33;26;
59153;PMS5003;44935;48.944;9.418;2022-12-18T03:23:58;22;22;
59153;PMS5003;44935;48.944;9.418;2022-12-18T03:26:28;25;23;
59153;PMS5003;44935;48.944;9.418;2022-12-18T03:28:57;22;22;
59153;PMS5003;44935;48.944;9.418;2022-12-18T03:31:29;21;21;
59153;PMS5003;44935;48.944;9.418;2022-12-18T03:33:59;17;17;
59153;PMS5003;44935;48.944;9.418;2022-12-18T03:36:36;12;12;
59153;PMS5003;44935;48.944;9.418;2022-12-18T03:39:03;18;18;
59153;PMS5003;44935;48.944;9.418;2022-12-18T03:41:31;20;14;
59153;PMS5003;44935;48.944;9.418;2022-12-18T03:44:05;20;14;
59153;PMS5003;44935;48.944;9.418;2022-12-18T03:46:39;18;17;
59153;PMS5003;44935;48.944;9.418;2022-12-18T03:49:13;16;16;
59153;PMS5003;44935;48.944;9.418;2022-12-18T03:51:48;17;14;
59153;PMS5003;44935;48.944;9.418;2022-12-18T03:54:20;28;25;
59153;PMS5003;44935;48.944;9.418;2022-12-18T03:56:49;18;17;
59153;PMS5003;44935;48.944;9.418;2022-12-18T03:59:29;30;26;
59153;PMS5003;44935;48.944;9.418;2022-12-18T04:01:59;21;20;
59153;PMS5003;44935;48.944;9.418;2022-12-18T04:04:27;15;15;
59153;PMS5003;44935;48.944;9.418;2022-12-18T04:06:57;26;25;
59153;PMS5003;44935;48.944;9.418;2022-12-18T04:09:25;14;14;
59153;PMS5003;44935;48.944;9.418;2022-12-18T04:11:53;19;15;
59153;PMS5003;44935;48.944;9.418;2022-12-18T04:14:23;17;17;
59153;PMS5003;44935;48.944;9.418;2022-12-18T04:16:51;15;11;
59153;PMS5003;44935;48.944;9.418;2022-12-18T04:19:17;22;20;
59153;PMS5003;44935;48.944;9.418;2022-12-18T04:21:45;12;12;
59153;PMS5003;44935;48.944;9.418;2022-12-18T04:24:17;17;13;
59153;PMS5003;44935;48.944;9.418;2022-12-18T04:26:44;15;14;
59153;PMS5003;44935;48.944;9.418;2022-12-18T04:29:11;20;20;
59153;PMS5003;44935;48.944;9.418;2022-12-18T04:31:38;13;13;
59153;PMS5003;44935;48.944;9.418;2022-12-18T04:34:05;25;24;
59153;PMS5003;44935;48.944;9.418;2022-12-18T04:36:32;17;16;
59153;PMS5003;44935;48.944;9.418;2022-12-18T04:38:59;28;26;
59153;PMS5003;44935;48.944;9.418;2022-12-18T04:41:26;20;16;
59153;PMS5003;44935;48.944;9.418;2022-12-18T04:43:53;20;17;
59153;PMS5003;44935;48.944;9.418;2022-12-18T04:46:19;13;13;
59153;PMS5003;44935;48.944;9.418;2022-12-18T04:48:46;16;14;
59153;PMS5003;44935;48.944;9.418;2022-12-18T04:51:14;25;22;
59153;PMS5003;44935;48.944;9.418;2022-12-18T04:53:41;17;16;
59153;PMS5003;44935;48.944;9.418;2022-12-18T04:56:09;20;20;
59153;PMS5003;44935;48.944;9.418;2022-12-18T04:58:37;24;18;
59153;PMS5003;44935;48.944;9.418;2022-12-18T05:01:05;22;20;
59153;PMS5003;44935;48.944;9.418;2022-12-18T05:03:32;18;15;
59153;PMS5003;44935;48.944;9.418;2022-12-18T05:05:59;30;27;
59153;PMS5003;44935;48.944;9.418;2022-12-18T05:08:27;17;17;
59153;PMS5003;44935;48.944;9.418;2022-12-18T05:10:58;18;17;
59153;PMS5003;44935;48.944;9.418;2022-12-18T05:13:26;18;12;
59153;PMS5003;44935;48.944;9.418;2022-12-18T05:15:53;21;18;
59153;PMS5003;44935;48.944;9.418;2022-12-18T05:18:21;18;18;
59153;PMS5003;44935;48.944;9.418;2022-12-18T05:20:49;15;14;
59153;PMS5003;44935;48.944;9.418;2022-12-18T05:23:17;18;18;
59153;PMS5003;44935;48.944;9.418;2022-12-18T05:25:46;28;21;
59153;PMS5003;44935;48.944;9.418;2022-12-18T05:28:17;22;18;
59153;PMS5003;44935;48.944;9.418;2022-12-18T05:30:47;26;20;
59153;PMS5003;44935;48.944;9.418;2022-12-18T05:33:15;17;16;
59153;PMS5003;44935;48.944;9.418;2022-12-18T05:35:42;15;14;
59153;PMS5003;44935;48.944;9.418;2022-12-18T05:38:10;15;15;
59153;PMS5003;44935;48.944;9.418;2022-12-18T05:40:41;21;21;
59153;PMS5003;44935;48.944;9.418;2022-12-18T05:43:09;18;17;
59153;PMS5003;44935;48.944;9.418;2022-12-18T05:45:36;13;13;
59153;PMS5003;44935;48.944;9.418;2022-12-18T05:48:04;10;10;
59153;PMS5003;44935;48.944;9.418;2022-12-18T05:50:33;19;18;
59153;PMS5003;44935;48.944;9.418;2022-12-18T05:53:00;27;23;
59153;PMS5003;44935;48.944;9.418;2022-12-18T05:55:28;15;13;
59153;PMS5003;44935;48.944;9.418;2022-12-18T05:57:59;20;17;
59153;PMS5003;44935;48.944;9.418;2022-12-18T06:00:27;17;14;
59153;PMS5003;44935;48.944;9.418;2022-12-18T06:02:54;14;12;
59153;PMS5003;44935;48.944;9.418;2022-12-18T06:05:21;12;12;
59153;PMS5003;44935;48.944;9.418;2022-12-18T06:07:48;9;9;
59153;PMS5003;44935;48.944;9.418;2022-12-18T06:10:15;14;14;
59153;PMS5003;44935;48.944;9.418;2022-12-18T06:12:43;24;16;
59153;PMS5003;44935;48.944;9.418;2022-12-18T06:15:10;21;21;
59153;PMS5003;44935;48.944;9.418;2022-12-18T06:17:37;20;17;
59153;PMS5003;44935;48.944;9.418;2022-12-18T06:20:05;16;13;
59153;PMS5003;44935;48.944;9.418;2022-12-18T06:22:33;17;16;
59153;PMS5003;44935;48.944;9.418;2022-12-18T06:25:00;8;8;
59153;PMS5003;44935;48.944;9.418;2022-12-18T06:27:27;14;10;
59153;PMS5003;44935;48.944;9.418;2022-12-18T06:29:54;10;9;
59153;PMS5003;44935;48.944;9.418;2022-12-18T06:32:22;19;17;
59153;PMS5003;44935;48.944;9.418;2022-12-18T06:34:50;18;17;
59153;PMS5003;44935;48.944;9.418;2022-12-18T06:37:17;17;16;
59153;PMS5003;44935;48.944;9.418;2022-12-18T06:39:44;20;17;
59153;PMS5003;44935;48.944;9.418;2022-12-18T06:42:17;16;13;
59153;PMS5003;44935;48.944;9.418;2022-12-18T06:44:44;9;9;
59153;PMS5003;44935;48.944;9.418;2022-12-18T06:47:11;16;12;
59153;PMS5003;44935;48.944;9.418;2022-12-18T06:49:38;14;13;
59153;PMS5003;44935;48.944;9.418;2022-12-18T06:52:05;13;10;
59153;PMS5003;44935;48.944;9.418;2022-12-18T06:54:32;20;13;
59153;PMS5003;44935;48.944;9.418;2022-12-18T06:56:59;10;10;
59153;PMS5003;44935;48.944;9.418;2022-12-18T06:59:26;13;12;
59153;PMS5003;44935;48.944;9.418;2022-12-18T07:01:53;13;10;
59153;PMS5003;44935;48.944;9.418;2022-12-18T07:04:20;21;13;
59153;PMS5003;44935;48.944;9.418;2022-12-18T07:06:48;10;10;
59153;PMS5003;44935;48.944;9.418;2022-12-18T07:09:16;7;7;
59153;PMS5003;44935;48.944;9.418;2022-12-18T07:11:43;15;14;
59153;PMS5003;44935;48.944;9.418;2022-12-18T07:14:10;9;9;
59153;PMS5003;44935;48.944;9.418;2022-12-18T07:16:37;10;10;
59153;PMS5003;44935;48.944;9.418;2022-12-18T07:19:04;10;7;
59153;PMS5003;44935;48.944;9.418;2022-12-18T07:21:31;22;20;
59153;PMS5003;44935;48.944;9.418;2022-12-18T07:23:59;9;9;
59153;PMS5003;44935;48.944;9.418;2022-12-18T07:26:25;11;9;
59153;PMS5003;44935;48.944;9.418;2022-12-18T07:28:54;11;11;
59153;PMS5003;44935;48.944;9.418;2022-12-18T07:31:23;13;9;
59153;PMS5003;44935;48.944;9.418;2022-12-18T07:33:51;8;8;
59153;PMS5003;44935;48.944;9.418;2022-12-18T07:36:19;6;6;
59153;PMS5003;44935;48.944;9.418;2022-12-18T07:38:51;8;8;
59153;PMS5003;44935;48.944;9.418;2022-12-18T07:41:18;8;8;
59153;PMS5003;44935;48.944;9.418;2022-12-18T07:43:46;9;8;
59153;PMS5003;44935;48.944;9.418;2022-12-18T07:46:14;9;9;
59153;PMS5003;44935;48.944;9.418;2022-12-18T07:48:44;10;9;
59153;PMS5003;44935;48.944;9.418;2022-12-18T07:51:14;10;10;
59153;PMS5003;44935;48.944;9.418;2022-12-18T07:53:43;14;12;
59153;PMS5003;44935;48.944;9.418;2022-12-18T07:56:11;9;9;
59153;PMS5003;44935;48.944;9.418;2022-12-18T07:58:39;9;7;
59153;PMS5003;44935;48.944;9.418;2022-12-18T08:01:08;7;7;
59153;PMS5003;44935;48.944;9.418;2022-12-18T08:03:36;6;6;
59153;PMS5003;44935;48.944;9.418;2022-12-18T08:06:04;7;7;
59153;PMS5003;44935;48.944;9.418;2022-12-18T08:08:34;7;5;
59153;PMS5003;44935;48.944;9.418;2022-12-18T08:11:02;9;9;
59153;PMS5003;44935;48.944;9.418;2022-12-18T08:13:29;7;7;
59153;PMS5003;44935;48.944;9.418;2022-12-18T08:15:57;14;10;
59153;PMS5003;44935;48.944;9.418;2022-12-18T08:18:25;18;15;
59153;PMS5003;44935;48.944;9.418;2022-12-18T08:20:54;6;6;
59153;PMS5003;44935;48.944;9.418;2022-12-18T08:23:22;18;16;
59153;PMS5003;44935;48.944;9.418;2022-12-18T08:25:49;15;11;
59153;PMS5003;44935;48.944;9.418;2022-12-18T08:28:17;12;11;
59153;PMS5003;44935;48.944;9.418;2022-12-18T08:30:45;10;10;
59153;PMS5003;44935;48.944;9.418;2022-12-18T08:33:12;30;23;
59153;PMS5003;44935;48.944;9.418;2022-12-18T08:35:49;19;19;
59153;PMS5003;44935;48.944;9.418;2022-12-18T08:38:16;17;17;
59153;PMS5003;44935;48.944;9.418;2022-12-18T08:40:48;22;21;
59153;PMS5003;44935;48.944;9.418;2022-12-18T08:43:16;11;8;
59153;PMS5003;44935;48.944;9.418;2022-12-18T08:45:45;31;30;
59153;PMS5003;44935;48.944;9.418;2022-12-18T08:48:12;12;11;
59153;PMS5003;44935;48.944;9.418;2022-12-18T08:50:39;5;5;
59153;PMS5003;44935;48.944;9.418;2022-12-18T08:53:07;11;10;
59153;PMS5003;44935;48.944;9.418;2022-12-18T08:55:34;13;10;
59153;PMS5003;44935;48.944;9.418;2022-12-18T08:58:01;12;10;
59153;PMS5003;44935;48.944;9.418;2022-12-18T09:00:29;12;12;
59153;PMS5003;44935;48.944;9.418;2022-12-18T09:02:55;16;13;
59153;PMS5003;44935;48.944;9.418;2022-12-18T09:05:23;23;19;
59153;PMS5003;44935;48.944;9.418;2022-12-18T09:07:50;13;9;
59153;PMS5003;44935;48.944;9.418;2022-12-18T09:10:22;14;11;
59153;PMS5003;44935;48.944;9.418;2022-12-18T09:12:49;9;9;
59153;PMS5003;44935;48.944;9.418;2022-12-18T09:15:16;17;14;
59153;PMS5003;44935;48.944;9.418;2022-12-18T09:17:44;21;21;
59153;PMS5003;44935;48.944;9.418;2022-12-18T09:20:11;20;14;
59153;PMS5003;44935;48.944;9.418;2022-12-18T09:22:37;9;9;
59153;PMS5003;44935;48.944;9.418;2022-12-18T09:25:05;15;15;
59153;PMS5003;44935;48.944;9.418;2022-12-18T09:27:32;13;10;
59153;PMS5003;44935;48.944;9.418;2022-12-18T09:29:59;14;12;
59153;PMS5003;44935;48.944;9.418;2022-12-18T09:32:27;18;13;
59153;PMS5003;44935;48.944;9.418;2022-12-18T09:34:54;14;12;
59153;PMS5003;44935;48.944;9.418;2022-12-18T09:37:21;17;15;
59153;PMS5003;44935;48.944;9.418;2022-12-18T09:39:48;9;9;
59153;PMS5003;44935;48.944;9.418;2022-12-18T09:42:17;9;8;
59153;PMS5003;44935;48.944;9.418;2022-12-18T09:44:48;11;10;
59153;PMS5003;44935;48.944;9.418;2022-12-18T09:47:18;17;16;
59153;PMS5003;44935;48.944;9.418;2022-12-18T09:49:50;11;9;
59153;PMS5003;44935;48.944;9.418;2022-12-18T09:52:22;9;9;
59153;PMS5003;44935;48.944;9.418;2022-12-18T09:54:54;10;9;
59153;PMS5003;44935;48.944;9.418;2022-12-18T09:57:29;20;17;
59153;PMS5003;44935;48.944;9.418;2022-12-18T10:00:08;14;10;
59153;PMS5003;44935;48.944;9.418;2022-12-18T10:02:43;14;14;
59153;PMS5003;44935;48.944;9.418;2022-12-18T10:05:12;16;16;
59153;PMS5003;44935;48.944;9.418;2022-12-18T10:07:45;14;11;
59153;PMS5003;44935;48.944;9.418;2022-12-18T10:10:27;11;11;
59153;PMS5003;44935;48.944;9.418;2022-12-18T10:13:05;10;9;
59153;PMS5003;44935;48.944;9.418;2022-12-18T10:15:41;16;16;
59153;PMS5003;44935;48.944;9.418;2022-12-18T10:18:21;8;8;
59153;PMS5003;44935;48.944;9.418;2022-12-18T10:20:56;9;8;
59153;PMS5003;44935;48.944;9.418;2022-12-18T10:23:29;8;8;
59153;PMS5003;44935;48.944;9.418;2022-12-18T10:26:05;10;9;
59153;PMS5003;44935;48.944;9.418;2022-12-18T10:28:41;12;11;
59153;PMS5003;44935;48.944;9.418;2022-12-18T10:31:12;9;6;
59153;PMS5003;44935;48.944;9.418;2022-12-18T10:33:42;13;11;
59153;PMS5003;44935;48.944;9.418;2022-12-18T10:36:11;11;9;
59153;PMS5003;44935;48.944;9.418;2022-12-18T10:38:39;9;8;
59153;PMS5003;44935;48.944;9.418;2022-12-18T10:41:06;13;13;
59153;PMS5003;44935;48.944;9.418;2022-12-18T10:43:53;6;6;
59153;PMS5003;44935;48.944;9.418;2022-12-18T10:46:38;12;10;
59153;PMS5003;44935;48.944;9.418;2022-12-18T10:49:17;5;5;
59153;PMS5003;44935;48.944;9.418;2022-12-18T10:51:46;14;11;
59153;PMS5003;44935;48.944;9.418;2022-12-18T10:54:15;8;8;
59153;PMS5003;44935;48.944;9.418;2022-12-18T10:56:48;7;7;
59153;PMS5003;44935;48.944;9.418;2022-12-18T10:59:18;14;13;
59153;PMS5003;44935;48.944;9.418;2022-12-18T11:01:48;12;12;
59153;PMS5003;44935;48.944;9.418;2022-12-18T11:04:19;13;11;
59153;PMS5003;44935;48.944;9.418;2022-12-18T11:06:56;6;6;
59153;PMS5003;44935;48.944;9.418;2022-12-18T11:09:26;17;12;
59153;PMS5003;44935;48.944;9.418;2022-12-18T11:11:55;9;8;
59153;PMS5003;44935;48.944;9.418;2022-12-18T11:14:24;8;8;
59153;PMS5003;44935;48.944;9.418;2022-12-18T11:16:54;11;11;
59153;PMS5003;44935;48.944;9.418;2022-12-18T11:19:28;8;8;
59153;PMS5003;44935;48.944;9.418;2022-12-18T11:21:59;6;4;
59153;PMS5003;44935;48.944;9.418;2022-12-18T11:24:49;11;11;
59153;PMS5003;44935;48.944;9.418;2022-12-18T11:27:20;7;7;
59153;PMS5003;44935;48.944;9.418;2022-12-18T11:29:48;9;9;
59153;PMS5003;44935;48.944;9.418;2022-12-18T11:32:24;7;7;
59153;PMS5003;44935;48.944;9.418;2022-12-18T11:34:59;6;6;
59153;PMS5003;44935;48.944;9.418;2022-12-18T11:37:35;6;6;
59153;PMS5003;44935;48.944;9.418;2022-12-18T11:40:06;11;11;
59153;PMS5003;44935;48.944;9.418;2022-12-18T11:42:42;9;7;
59153;PMS5003;44935;48.944;9.418;2022-12-18T11:45:25;19;16;
59153;PMS5003;44935;48.944;9.418;2022-12-18T11:47:56;10;5;
59153;PMS5003;44935;48.944;9.418;2022-12-18T11:50:29;18;15;
59153;PMS5003;44935;48.944;9.418;2022-12-18T11:53:16;10;6;
59153;PMS5003;44935;48.944;9.418;2022-12-18T11:55:49;10;9;
59153;PMS5003;44935;48.944;9.418;2022-12-18T11:58:27;10;10;
59153;PMS5003;44935;48.944;9.418;2022-12-18T12:01:07;6;6;
59153;PMS5003;44935;48.944;9.418;2022-12-18T12:03:59;9;9;
59153;PMS5003;44935;48.944;9.418;2022-12-18T12:07:13;9;9;
59153;PMS5003;44935;48.944;9.418;2022-12-18T12:09:54;6;6;
59153;PMS5003;44935;48.944;9.418;2022-12-18T12:12:30;11;7;
59153;PMS5003;44935;48.944;9.418;2022-12-18T12:15:06;10;10;
59153;PMS5003;44935;48.944;9.418;2022-12-18T12:17:47;10;5;
59153;PMS5003;44935;48.944;9.418;2022-12-18T12:20:22;18;12;
59153;PMS5003;44935;48.944;9.418;2022-12-18T12:22:58;12;12;
59153;PMS5003;44935;48.944;9.418;2022-12-18T12:25:34;11;8;
59153;PMS5003;44935;48.944;9.418;2022-12-18T12:28:12;7;7;
59153;PMS5003;44935;48.944;9.418;2022-12-18T12:30:52;8;6;
59153;PMS5003;44935;48.944;9.418;2022-12-18T12:33:31;6;6;
59153;PMS5003;44935;48.944;9.418;2022-12-18T12:36:08;6;6;
59153;PMS5003;44935;48.944;9.418;2022-12-18T12:38:45;13;10;
59153;PMS5003;44935;48.944;9.418;2022-12-18T12:41:21;9;9;
59153;PMS5003;44935;48.944;9.418;2022-12-18T12:43:52;16;16;
59153;PMS5003;44935;48.944;9.418;2022-12-18T12:46:24;8;7;
59153;PMS5003;44935;48.944;9.418;2022-12-18T12:48:54;11;11;
59153;PMS5003;44935;48.944;9.418;2022-12-18T12:51:24;7;7;
59153;PMS5003;44935;48.944;9.418;2022-12-18T12:53:54;11;7;
59153;PMS5003;44935;48.944;9.418;2022-12-18T12:56:30;14;13;
59153;PMS5003;44935;48.944;9.418;2022-12-18T12:59:11;9;6;
59153;PMS5003;44935;48.944;9.418;2022-12-18T13:01:49;11;7;
59153;PMS5003;44935;48.944;9.418;2022-12-18T13:04:26;16;13;
59153;PMS5003;44935;48.944;9.418;2022-12-18T13:07:03;9;9;
59153;PMS5003;44935;48.944;9.418;2022-12-18T13:10:12;12;11;
59153;PMS5003;44935;48.944;9.418;2022-12-18T13:12:53;8;7;
59153;PMS5003;44935;48.944;9.418;2022-12-18T13:15:22;7;7;
59153;PMS5003;44935;48.944;9.418;2022-12-18T13:18:02;10;5;
59153;PMS5003;44935;48.944;9.418;2022-12-18T13:20:33;10;10;
59153;PMS5003;44935;48.944;9.418;2022-12-18T13:23:02;8;8;
59153;PMS5003;44935;48.944;9.418;2022-12-18T13:25:55;9;9;
59153;PMS5003;44935;48.944;9.418;2022-12-18T13:28:23;9;6;
59153;PMS5003;44935;48.944;9.418;2022-12-18T13:31:57;8;8;
59153;PMS5003;44935;48.944;9.418;2022-12-18T13:34:27;14;8;
59153;PMS5003;44935;48.944;9.418;2022-12-18T13:41:22;6;6;
59153;PMS5003;44935;48.944;9.418;2022-12-18T13:43:51;8;8;
59153;PMS5003;44935;48.944;9.418;2022-12-18T13:46:23;7;7;
59153;PMS5003;44935;48.944;9.418;2022-12-18T13:48:55;5;5;
59153;PMS5003;44935;48.944;9.418;2022-12-18T13:51:26;10;5;
59153;PMS5003;44935;48.944;9.418;2022-12-18T13:54:20;7;7;
59153;PMS5003;44935;48.944;9.418;2022-12-18T13:57:36;7;7;
59153;PMS5003;44935;48.944;9.418;2022-12-18T14:02:15;5;4;
59153;PMS5003;44935;48.944;9.418;2022-12-18T14:05:20;6;5;
59153;PMS5003;44935;48.944;9.418;2022-12-18T14:08:04;8;8;
59153;PMS5003;44935;48.944;9.418;2022-12-18T14:10:58;10;10;
59153;PMS5003;44935;48.944;9.418;2022-12-18T14:13:29;13;13;
59153;PMS5003;44935;48.944;9.418;2022-12-18T14:16:00;6;6;
59153;PMS5003;44935;48.944;9.418;2022-12-18T14:18:43;5;5;
59153;PMS5003;44935;48.944;9.418;2022-12-18T14:21:17;7;7;
59153;PMS5003;44935;48.944;9.418;2022-12-18T14:24:04;12;12;
59153;PMS5003;44935;48.944;9.418;2022-12-18T14:26:42;10;7;
59153;PMS5003;44935;48.944;9.418;2022-12-18T14:29:20;7;6;
59153;PMS5003;44935;48.944;9.418;2022-12-18T14:32:24;6;6;
59153;PMS5003;44935;48.944;9.418;2022-12-18T14:34:57;6;6;
59153;PMS5003;44935;48.944;9.418;2022-12-18T14:38:27;12;10;
59153;PMS5003;44935;48.944;9.418;2022-12-18T14:41:13;9;8;
59153;PMS5003;44935;48.944;9.418;2022-12-18T14:43:47;12;11;
59153;PMS5003;44935;48.944;9.418;2022-12-18T14:46:29;6;6;
59153;PMS5003;44935;48.944;9.418;2022-12-18T14:49:04;12;12;
59153;PMS5003;44935;48.944;9.418;2022-12-18T14:51:47;13;9;
59153;PMS5003;44935;48.944;9.418;2022-12-18T14:54:26;8;6;
59153;PMS5003;44935;48.944;9.418;2022-12-18T14:56:56;6;6;
59153;PMS5003;44935;48.944;9.418;2022-12-18T14:59:30;8;6;
59153;PMS5003;44935;48.944;9.418;2022-12-18T15:02:09;4;4;
59153;PMS5003;44935;48.944;9.418;2022-12-18T15:04:45;8;8;
59153;PMS5003;44935;48.944;9.418;2022-12-18T15:07:17;6;5;
59153;PMS5003;44935;48.944;9.418;2022-12-18T15:10:10;6;6;
59153;PMS5003;44935;48.944;9.418;2022-12-18T15:12:40;6;6;
59153;PMS5003;44935;48.944;9.418;2022-12-18T15:16:15;9;7;
59153;PMS5003;44935;48.944;9.418;2022-12-18T15:18:45;8;4;
59153;PMS5003;44935;48.944;9.418;2022-12-18T15:21:32;8;8;
59153;PMS5003;44935;48.944;9.418;2022-12-18T15:24:15;12;8;
59153;PMS5003;44935;48.944;9.418;2022-12-18T15:26:47;8;7;
59153;PMS5003;44935;48.944;9.418;2022-12-18T15:29:18;8;7;
59153;PMS5003;44935;48.944;9.418;2022-12-18T15:32:02;11;11;
59153;PMS5003;44935;48.944;9.418;2022-12-18T15:34:45;10;9;
59153;PMS5003;44935;48.944;9.418;2022-12-18T15:37:13;13;11;
59153;PMS5003;44935;48.944;9.418;2022-12-18T15:39:41;10;9;
59153;PMS5003;44935;48.944;9.418;2022-12-18T15:42:24;12;12;
59153;PMS5003;44935;48.944;9.418;2022-12-18T15:44:56;6;6;
59153;PMS5003;44935;48.944;9.418;2022-12-18T15:47:23;13;10;
59153;PMS5003;44935;48.944;9.418;2022-12-18T15:49:55;7;7;
59153;PMS5003;44935;48.944;9.418;2022-12-18T15:52:22;7;6;
59153;PMS5003;44935;48.944;9.418;2022-12-18T15:54:50;8;7;
59153;PMS5003;44935;48.944;9.418;2022-12-18T15:57:23;12;11;
59153;PMS5003;44935;48.944;9.418;2022-12-18T15:59:50;10;6;
59153;PMS5003;44935;48.944;9.418;2022-12-18T16:02:20;11;8;
59153;PMS5003;44935;48.944;9.418;2022-12-18T16:04:53;12;11;
59153;PMS5003;44935;48.944;9.418;2022-12-18T16:07:20;7;7;
59153;PMS5003;44935;48.944;9.418;2022-12-18T16:09:48;8;6;
59153;PMS5003;44935;48.944;9.418;2022-12-18T16:12:17;8;8;
59153;PMS5003;44935;48.944;9.418;2022-12-18T16:14:48;9;9;
59153;PMS5003;44935;48.944;9.418;2022-12-18T16:17:16;7;7;
59153;PMS5003;44935;48.944;9.418;2022-12-18T16:19:43;7;5;
59153;PMS5003;44935;48.944;9.418;2022-12-18T16:22:17;9;9;
59153;PMS5003;44935;48.944;9.418;2022-12-18T16:24:46;7;7;
59153;PMS5003;44935;48.944;9.418;2022-12-18T16:27:14;25;17;
59153;PMS5003;44935;48.944;9.418;2022-12-18T16:29:42;12;8;
59153;PMS5003;44935;48.944;9.418;2022-12-18T16:32:11;14;8;
59153;PMS5003;44935;48.944;9.418;2022-12-18T16:34:44;7;7;
59153;PMS5003;44935;48.944;9.418;2022-12-18T16:37:13;8;8;
59153;PMS5003;44935;48.944;9.418;2022-12-18T16:39:42;9;9;
59153;PMS5003;44935;48.944;9.418;2022-12-18T16:42:11;10;8;
59153;PMS5003;44935;48.944;9.418;2022-12-18T16:44:42;10;7;
59153;PMS5003;44935;48.944;9.418;2022-12-18T16:47:13;7;6;
59153;PMS5003;44935;48.944;9.418;2022-12-18T16:49:41;9;9;
59153;PMS5003;44935;48.944;9.418;2022-12-18T16:52:08;10;9;
59153;PMS5003;44935;48.944;9.418;2022-12-18T16:54:36;9;6;
59153;PMS5003;44935;48.944;9.418;2022-12-18T16:57:03;12;12;
59153;PMS5003;44935;48.944;9.418;2022-12-18T16:59:31;8;7;
59153;PMS5003;44935;48.944;9.418;2022-12-18T17:01:58;9;9;
59153;PMS5003;44935;48.944;9.418;2022-12-18T17:04:26;4;4;
59153;PMS5003;44935;48.944;9.418;2022-12-18T17:06:53;9;8;
59153;PMS5003;44935;48.944;9.418;2022-12-18T17:09:20;21;20;